Time;durP1;ratioP1;P1;durP2;ratioP2;P2;SDS_P1;SDS_P2;PMS_P1;PMS_P2;Temp;Humidity;BMP_temperature;BMP_pressure;BME280_temperature;BME280_humidity;BME280_pressure;Samples;Min_cycle;Max_cycle;Signal;HPM_P1;HPM_P2
2023/05/04 00:01:10;;;;;;;12.17;5.53;;;5.70;96.60;;;;;;5031761;28;20036;-71
2023/05/04 00:03:37;;;;;;;13.93;5.90;;;5.70;97.30;;;;;;5028028;28;20040;-71
2023/05/04 00:06:02;;;;;;;14.18;5.15;;;5.70;98.10;;;;;;5047621;28;20040;-71
2023/05/04 00:08:30;;;;;;;13.13;5.30;;;5.70;97.80;;;;;;5039327;28;20404;-71
2023/05/04 00:10:56;;;;;;;11.52;5.43;;;5.70;98.40;;;;;;5046639;28;20102;-71
2023/05/04 00:13:23;;;;;;;9.17;5.10;;;5.70;98.80;;;;;;5044038;28;20041;-71
2023/05/04 00:15:49;;;;;;;12.52;5.25;;;5.60;99.80;;;;;;5038022;28;20033;-71
2023/05/04 00:18:14;;;;;;;8.77;4.67;;;5.60;99.90;;;;;;5048471;28;20037;-71
2023/05/04 00:20:40;;;;;;;10.73;5.57;;;5.60;99.90;;;;;;5022575;28;20049;-71
2023/05/04 00:23:06;;;;;;;10.87;5.20;;;5.60;99.90;;;;;;5041586;28;20110;-71
2023/05/04 00:25:31;;;;;;;10.33;5.10;;;5.50;99.90;;;;;;5026133;28;20037;-71
2023/05/04 00:27:57;;;;;;;9.30;5.27;;;5.50;99.90;;;;;;5038054;28;20523;-71
2023/05/04 00:30:23;;;;;;;12.30;4.73;;;5.50;99.90;;;;;;5048219;28;20036;-71
2023/05/04 00:32:49;;;;;;;12.00;5.30;;;5.50;99.90;;;;;;5048129;28;20102;-71
2023/05/04 00:35:15;;;;;;;11.40;5.23;;;5.40;99.90;;;;;;5043250;28;20030;-71
2023/05/04 00:37:42;;;;;;;11.30;5.67;;;5.40;99.90;;;;;;5016396;28;20045;-71
2023/05/04 00:40:09;;;;;;;10.95;4.85;;;5.40;99.90;;;;;;5030858;28;20041;-71
2023/05/04 00:42:35;;;;;;;13.60;5.10;;;5.40;99.90;;;;;;5047946;28;20057;-71
2023/05/04 00:45:00;;;;;;;14.73;5.20;;;5.40;99.90;;;;;;5047445;28;20124;-72
2023/05/04 00:47:28;;;;;;;15.87;5.43;;;5.40;99.90;;;;;;5045560;28;20057;-71
2023/05/04 00:49:54;;;;;;;12.35;6.05;;;5.40;99.90;;;;;;5038860;28;20057;-71
2023/05/04 00:52:21;;;;;;;11.40;4.80;;;5.40;99.90;;;;;;5047511;28;20075;-71
2023/05/04 00:54:47;;;;;;;11.50;5.05;;;5.40;99.90;;;;;;5048023;28;20078;-71
2023/05/04 00:57:15;;;;;;;12.20;4.63;;;5.40;99.90;;;;;;5027381;28;20037;-71
2023/05/04 00:59:41;;;;;;;10.05;5.93;;;5.40;99.90;;;;;;5036640;28;20144;-71
2023/05/04 01:02:07;;;;;;;9.83;4.87;;;5.40;99.90;;;;;;5016121;28;20124;-71
2023/05/04 01:04:32;;;;;;;11.87;5.30;;;5.40;99.90;;;;;;5029522;28;20150;-71
2023/05/04 01:07:18;;;;;;;12.83;5.53;;;5.40;99.90;;;;;;5043518;28;20041;-71
2023/05/04 01:09:58;;;;;;;11.07;5.20;;;5.40;99.90;;;;;;5036902;28;20413;-71
2023/05/04 01:12:35;;;;;;;12.05;5.68;;;5.40;99.90;;;;;;5027832;28;20051;-71
2023/05/04 01:15:02;;;;;;;11.95;6.32;;;5.40;99.90;;;;;;5030638;28;20037;-71
2023/05/04 01:17:28;;;;;;;13.40;5.75;;;5.40;99.90;;;;;;5037699;28;20460;-71
2023/05/04 01:19:54;;;;;;;10.83;5.37;;;5.30;99.90;;;;;;5044683;28;20046;-71
2023/05/04 01:22:23;;;;;;;13.33;5.53;;;5.40;99.90;;;;;;5015701;28;20453;-71
2023/05/04 01:24:49;;;;;;;12.00;5.60;;;5.40;99.90;;;;;;5034107;28;20123;-71
2023/05/04 01:27:30;;;;;;;12.27;5.45;;;5.30;99.90;;;;;;5046803;28;20048;-71
2023/05/04 01:30:01;;;;;;;11.65;6.00;;;5.30;99.90;;;;;;5038145;28;20056;-71
2023/05/04 01:32:30;;;;;;;15.48;6.22;;;5.30;99.90;;;;;;5045105;28;20132;-71
2023/05/04 01:34:56;;;;;;;11.13;6.22;;;5.30;99.90;;;;;;5028374;28;20068;-71
2023/05/04 01:37:22;;;;;;;10.25;5.78;;;5.20;99.90;;;;;;5047490;28;20591;-71
2023/05/04 01:39:47;;;;;;;12.67;6.50;;;5.20;99.90;;;;;;5041175;28;20124;-71
2023/05/04 01:42:13;;;;;;;8.60;6.00;;;5.20;99.90;;;;;;5040612;28;20090;-71
2023/05/04 01:44:39;;;;;;;11.67;6.10;;;5.10;99.90;;;;;;5040203;28;20041;-71
2023/05/04 01:47:05;;;;;;;13.93;6.47;;;5.20;99.90;;;;;;5063874;28;20057;-71
2023/05/04 01:49:31;;;;;;;13.90;6.77;;;5.20;99.90;;;;;;5027942;28;20132;-71
2023/05/04 01:51:57;;;;;;;15.73;6.47;;;5.20;99.90;;;;;;5038495;28;20049;-71
2023/05/04 01:54:22;;;;;;;16.83;7.37;;;5.20;99.90;;;;;;5046986;28;20417;-71
2023/05/04 01:56:48;;;;;;;11.13;5.63;;;5.20;99.90;;;;;;5047563;28;20116;-71
2023/05/04 01:59:14;;;;;;;10.13;5.70;;;5.20;99.90;;;;;;5041972;28;20097;-71
2023/05/04 02:01:40;;;;;;;10.38;6.30;;;5.20;99.90;;;;;;5038222;28;20033;-71
2023/05/04 02:04:06;;;;;;;13.50;6.45;;;5.20;99.90;;;;;;5026181;28;20119;-71
2023/05/04 02:06:32;;;;;;;14.32;5.88;;;5.10;99.90;;;;;;5046414;28;20049;-71
2023/05/04 02:08:58;;;;;;;12.00;6.50;;;5.10;99.90;;;;;;5047878;28;20053;-71
2023/05/04 02:11:24;;;;;;;13.53;6.10;;;5.10;99.90;;;;;;5042971;28;20321;-71
2023/05/04 02:13:50;;;;;;;13.88;6.15;;;5.10;99.90;;;;;;5050404;28;20229;-71
2023/05/04 02:16:16;;;;;;;10.67;5.80;;;5.10;99.90;;;;;;5032308;28;20044;-71
2023/05/04 02:18:41;;;;;;;8.17;5.27;;;5.10;99.90;;;;;;5024375;28;20694;-71
2023/05/04 02:21:07;;;;;;;9.90;5.83;;;5.10;99.90;;;;;;5033818;28;20037;-71
2023/05/04 02:23:33;;;;;;;10.17;5.53;;;5.10;99.90;;;;;;5031863;28;20401;-71
2023/05/04 02:25:58;;;;;;;11.53;6.10;;;5.10;99.90;;;;;;5034379;28;20520;-71
2023/05/04 02:28:24;;;;;;;9.93;6.00;;;5.10;99.90;;;;;;5037639;28;20171;-71
2023/05/04 02:30:50;;;;;;;11.90;5.80;;;5.10;99.90;;;;;;5021243;28;20041;-71
2023/05/04 02:33:16;;;;;;;10.83;5.53;;;5.10;99.90;;;;;;5035744;28;20040;-71
2023/05/04 02:35:41;;;;;;;11.07;5.60;;;5.10;99.90;;;;;;5038506;28;20048;-71
2023/05/04 02:38:07;;;;;;;14.10;5.97;;;5.10;99.90;;;;;;5048341;28;20045;-71
2023/05/04 02:40:33;;;;;;;12.10;5.67;;;5.10;99.90;;;;;;5041996;28;20061;-71
2023/05/04 02:42:58;;;;;;;12.23;5.57;;;5.10;99.90;;;;;;5027355;28;20045;-71
2023/05/04 02:45:24;;;;;;;11.93;6.67;;;5.10;99.90;;;;;;5040043;28;20140;-71
2023/05/04 02:47:50;;;;;;;13.70;6.07;;;5.10;99.90;;;;;;5049924;28;20053;-71
2023/05/04 02:50:15;;;;;;;11.57;5.90;;;5.10;99.90;;;;;;5032406;28;20459;-71
2023/05/04 02:52:41;;;;;;;11.00;6.07;;;5.10;99.90;;;;;;5045964;28;20115;-71
2023/05/04 02:55:07;;;;;;;14.87;6.23;;;5.10;99.90;;;;;;5032319;28;20147;-71
2023/05/04 02:57:33;;;;;;;13.65;5.78;;;5.10;99.90;;;;;;5034617;28;20067;-71
2023/05/04 03:00:05;;;;;;;12.30;6.40;;;5.10;99.90;;;;;;5038683;28;20460;-71
2023/05/04 03:02:31;;;;;;;13.95;6.63;;;5.20;99.90;;;;;;5046297;28;20037;-71
2023/05/04 03:04:57;;;;;;;15.13;6.63;;;5.20;99.90;;;;;;5038813;28;20085;-71
2023/05/04 03:07:23;;;;;;;13.17;6.33;;;5.30;99.90;;;;;;5038840;28;20451;-71
2023/05/04 03:09:48;;;;;;;12.83;7.00;;;5.30;99.90;;;;;;5050188;28;20044;-71
2023/05/04 03:12:14;;;;;;;16.00;7.13;;;5.30;99.90;;;;;;5045560;28;20119;-71
2023/05/04 03:14:40;;;;;;;15.57;8.23;;;5.20;99.90;;;;;;5040173;28;20051;-71
2023/05/04 03:17:05;;;;;;;12.37;6.50;;;5.20;99.90;;;;;;5049774;28;20493;-71
2023/05/04 03:19:31;;;;;;;11.93;6.70;;;5.20;99.90;;;;;;5039616;28;20105;-71
2023/05/04 03:21:57;;;;;;;13.63;6.87;;;5.30;99.90;;;;;;5049116;28;20037;-71
2023/05/04 03:24:24;;;;;;;12.63;7.77;;;5.30;99.90;;;;;;5032115;28;20451;-71
2023/05/04 03:26:49;;;;;;;15.50;7.22;;;5.30;99.90;;;;;;5031407;28;20041;-71
2023/05/04 03:29:15;;;;;;;14.17;6.63;;;5.30;99.90;;;;;;5049588;28;20041;-71
2023/05/04 03:31:41;;;;;;;13.37;7.33;;;5.30;99.90;;;;;;5047571;28;20242;-71
2023/05/04 03:34:08;;;;;;;13.63;7.23;;;5.30;99.90;;;;;;5047253;28;20112;-71
2023/05/04 03:36:34;;;;;;;11.43;6.95;;;5.30;99.90;;;;;;5030739;28;20036;-71
2023/05/04 03:39:01;;;;;;;14.15;7.18;;;5.30;99.90;;;;;;5049353;28;20041;-71
2023/05/04 03:41:26;;;;;;;18.35;8.63;;;5.30;99.90;;;;;;5038550;28;20045;-71
2023/05/04 03:43:52;;;;;;;14.83;7.10;;;5.30;99.90;;;;;;5037245;28;20123;-71
2023/05/04 03:46:18;;;;;;;16.87;7.43;;;5.30;99.90;;;;;;5046785;28;20060;-71
2023/05/04 03:48:43;;;;;;;13.73;7.20;;;5.20;99.90;;;;;;5049377;28;20386;-71
2023/05/04 03:51:09;;;;;;;13.87;7.17;;;5.30;99.90;;;;;;5034264;28;20409;-71
2023/05/04 03:53:35;;;;;;;13.03;6.80;;;5.20;99.90;;;;;;5026128;28;20133;-71
2023/05/04 03:56:02;;;;;;;15.13;8.17;;;5.20;99.90;;;;;;5028687;28;20065;-71
2023/05/04 03:58:27;;;;;;;16.55;7.78;;;5.20;99.90;;;;;;5042183;28;20496;-71
2023/05/04 04:00:53;;;;;;;11.33;7.13;;;5.20;99.90;;;;;;5021229;28;20103;-71
2023/05/04 04:03:19;;;;;;;16.17;7.97;;;5.20;99.90;;;;;;5031250;28;20594;-71
2023/05/04 04:05:44;;;;;;;13.37;7.00;;;5.20;99.90;;;;;;5021873;28;20093;-71
2023/05/04 04:08:10;;;;;;;15.40;7.23;;;5.20;99.90;;;;;;5038579;28;20037;-71
2023/05/04 04:10:36;;;;;;;14.93;7.47;;;5.10;99.90;;;;;;5038264;28;20044;-71
2023/05/04 04:13:02;;;;;;;17.43;8.10;;;5.10;99.90;;;;;;5031276;28;20048;-71
2023/05/04 04:15:27;;;;;;;11.93;6.27;;;5.20;99.90;;;;;;5038903;28;20069;-71
2023/05/04 04:17:53;;;;;;;11.63;6.40;;;5.20;99.90;;;;;;5046481;28;20045;-71
2023/05/04 04:20:19;;;;;;;15.93;7.70;;;5.20;99.90;;;;;;5038074;28;20446;-71
2023/05/04 04:22:45;;;;;;;15.67;7.17;;;5.30;99.90;;;;;;5017412;28;20037;-71
2023/05/04 04:25:11;;;;;;;11.63;6.53;;;5.30;99.90;;;;;;5044355;28;20521;-71
2023/05/04 04:27:36;;;;;;;12.70;6.75;;;5.30;99.90;;;;;;5041781;28;20267;-71
2023/05/04 04:30:06;;;;;;;13.93;6.47;;;5.40;99.90;;;;;;5034472;28;20048;-71
2023/05/04 04:32:32;;;;;;;11.50;7.22;;;5.40;99.90;;;;;;5015556;28;20247;-71
2023/05/04 04:34:58;;;;;;;13.32;7.80;;;5.40;99.90;;;;;;5020407;28;20366;-71
2023/05/04 04:37:24;;;;;;;11.73;6.80;;;5.40;99.90;;;;;;5046184;28;20056;-71
2023/05/04 04:39:50;;;;;;;14.33;6.77;;;5.40;99.90;;;;;;5047706;28;20797;-71
2023/05/04 04:42:16;;;;;;;12.93;7.27;;;5.40;99.90;;;;;;5046304;28;20033;-71
2023/05/04 04:44:41;;;;;;;12.38;6.82;;;5.50;99.90;;;;;;5047338;28;20038;-71
2023/05/04 04:47:08;;;;;;;12.60;6.97;;;5.50;99.90;;;;;;5021816;28;20473;-71
2023/05/04 04:49:33;;;;;;;16.65;6.95;;;5.50;99.90;;;;;;5031148;28;20088;-71
2023/05/04 04:52:00;;;;;;;13.90;6.97;;;5.50;99.90;;;;;;5018877;28;20049;-71
2023/05/04 04:54:26;;;;;;;16.23;8.20;;;5.50;99.90;;;;;;5019182;28;20120;-71
2023/05/04 04:56:52;;;;;;;14.10;6.77;;;5.60;99.90;;;;;;5035645;28;20159;-71
2023/05/04 04:59:19;;;;;;;14.77;7.18;;;5.60;99.90;;;;;;5029831;28;20126;-71
2023/05/04 05:01:45;;;;;;;12.10;6.97;;;5.60;99.90;;;;;;5029155;28;20571;-71
2023/05/04 05:04:10;;;;;;;11.50;6.73;;;5.60;99.90;;;;;;5044296;28;20045;-71
2023/05/04 05:06:36;;;;;;;12.20;6.50;;;5.60;99.90;;;;;;5043354;28;20396;-71
2023/05/04 05:09:02;;;;;;;12.77;7.17;;;5.80;99.90;;;;;;5025232;28;20048;-71
2023/05/04 05:11:27;;;;;;;18.20;7.40;;;5.80;99.90;;;;;;5022302;28;20041;-71
2023/05/04 05:13:53;;;;;;;11.03;6.77;;;5.90;99.90;;;;;;5030692;28;20416;-72
2023/05/04 05:16:19;;;;;;;16.90;7.10;;;5.90;99.90;;;;;;5030535;28;20033;-71
2023/05/04 05:18:45;;;;;;;11.07;7.03;;;6.00;99.90;;;;;;5025858;28;20042;-71
2023/05/04 05:21:11;;;;;;;12.98;7.20;;;6.10;99.90;;;;;;5024952;28;20041;-71
2023/05/04 05:23:36;;;;;;;14.30;7.37;;;6.20;99.90;;;;;;5036314;28;20135;-71
2023/05/04 05:26:02;;;;;;;13.73;6.93;;;6.30;99.90;;;;;;5028758;28;20401;-71
2023/05/04 05:28:29;;;;;;;14.00;7.00;;;6.30;99.90;;;;;;5034441;28;20140;-71
2023/05/04 05:30:54;;;;;;;11.93;6.63;;;6.40;99.90;;;;;;5040138;28;20087;-71
2023/05/04 05:33:20;;;;;;;16.77;7.13;;;6.50;99.90;;;;;;5039829;28;20589;-71
2023/05/04 05:35:46;;;;;;;14.50;7.57;;;6.60;99.90;;;;;;5023602;28;20112;-71
2023/05/04 05:38:12;;;;;;;17.00;7.53;;;6.70;99.90;;;;;;5036677;28;20361;-71
2023/05/04 05:40:37;;;;;;;14.90;6.80;;;6.80;99.90;;;;;;5046966;28;20567;-71
2023/05/04 05:43:04;;;;;;;12.43;5.97;;;6.80;99.90;;;;;;5046868;28;20041;-72
2023/05/04 05:45:30;;;;;;;11.85;6.65;;;6.90;99.90;;;;;;5051593;28;20052;-72
2023/05/04 05:47:56;;;;;;;12.43;6.80;;;7.00;99.90;;;;;;5033180;28;20049;-72
2023/05/04 05:50:22;;;;;;;13.57;6.83;;;7.10;99.90;;;;;;5045384;28;20465;-72
2023/05/04 05:52:49;;;;;;;11.52;6.40;;;7.20;99.90;;;;;;5040663;28;20645;-71
2023/05/04 05:55:14;;;;;;;13.68;6.88;;;7.30;99.90;;;;;;5036920;28;20037;-71
2023/05/04 05:57:40;;;;;;;11.77;6.50;;;7.30;99.90;;;;;;5036988;28;20588;-71
2023/05/04 06:00:07;;;;;;;13.33;6.70;;;7.40;99.90;;;;;;5036189;28;20045;-71
2023/05/04 06:02:33;;;;;;;12.73;6.35;;;7.50;99.90;;;;;;5042171;28;20041;-71
2023/05/04 06:04:59;;;;;;;12.33;6.40;;;7.50;99.90;;;;;;5027328;28;20059;-71
2023/05/04 06:07:24;;;;;;;14.63;7.20;;;7.60;99.90;;;;;;5034313;28;20053;-71
2023/05/04 06:09:50;;;;;;;9.90;5.67;;;7.70;99.90;;;;;;5036834;28;20051;-71
2023/05/04 06:12:16;;;;;;;9.80;6.50;;;7.70;99.90;;;;;;5035147;28;20040;-71
2023/05/04 06:14:42;;;;;;;10.67;5.97;;;7.80;99.90;;;;;;5043622;28;20049;-71
2023/05/04 06:17:08;;;;;;;13.38;6.35;;;7.80;99.90;;;;;;5033427;28;20098;-71
2023/05/04 06:19:38;;;;;;;10.60;6.55;;;7.80;99.90;;;;;;5053365;28;20049;-71
2023/05/04 06:22:04;;;;;;;12.05;6.05;;;7.90;99.90;;;;;;5027750;28;20037;-71
2023/05/04 06:24:31;;;;;;;14.52;7.32;;;7.90;99.90;;;;;;5037179;28;20049;-71
2023/05/04 06:26:57;;;;;;;13.52;6.45;;;7.90;99.90;;;;;;5042416;28;20480;-71
2023/05/04 06:29:24;;;;;;;12.50;6.70;;;8.00;99.90;;;;;;5034123;28;20052;-71
2023/05/04 06:31:50;;;;;;;14.20;7.10;;;8.10;99.90;;;;;;5034839;28;20410;-71
2023/05/04 06:34:16;;;;;;;14.85;6.88;;;8.20;99.90;;;;;;5048579;28;20048;-71
2023/05/04 06:36:42;;;;;;;10.88;6.47;;;8.30;99.90;;;;;;5049434;28;20072;-71
2023/05/04 06:39:08;;;;;;;14.15;6.80;;;8.50;99.90;;;;;;5038940;28;20114;-71
2023/05/04 06:41:34;;;;;;;13.63;5.87;;;8.60;99.90;;;;;;5020574;28;20037;-71
2023/05/04 06:44:01;;;;;;;13.93;6.93;;;8.80;99.90;;;;;;5043117;28;20037;-71
2023/05/04 06:46:27;;;;;;;9.27;6.13;;;8.90;99.90;;;;;;5030002;28;20053;-71
2023/05/04 06:48:53;;;;;;;13.20;6.50;;;9.10;99.90;;;;;;5023716;28;20053;-71
2023/05/04 06:51:19;;;;;;;11.00;6.27;;;9.10;99.90;;;;;;5024511;28;20099;-71
2023/05/04 06:53:46;;;;;;;12.07;6.28;;;9.20;99.90;;;;;;5050215;28;20045;-71
2023/05/04 06:56:12;;;;;;;14.32;6.63;;;9.20;99.90;;;;;;5037372;28;20045;-71
2023/05/04 06:58:37;;;;;;;12.95;6.68;;;9.30;99.90;;;;;;5044973;28;20033;-71
2023/05/04 07:01:03;;;;;;;9.50;6.40;;;9.30;99.90;;;;;;5048338;28;20030;-71
2023/05/04 07:03:29;;;;;;;12.03;6.47;;;9.50;99.90;;;;;;5050024;28;20041;-71
2023/05/04 07:05:55;;;;;;;13.37;6.27;;;9.60;99.90;;;;;;5045372;28;20052;-71
2023/05/04 07:08:21;;;;;;;11.83;6.37;;;9.60;99.90;;;;;;5033108;28;20039;-71
2023/05/04 07:10:46;;;;;;;11.30;6.23;;;9.70;99.90;;;;;;5050154;28;20333;-71
2023/05/04 07:13:13;;;;;;;14.27;6.23;;;9.70;99.90;;;;;;5023584;28;20067;-71
2023/05/04 07:15:38;;;;;;;14.50;7.15;;;9.80;99.90;;;;;;5032617;28;20044;-71
2023/05/04 07:18:04;;;;;;;15.57;6.27;;;9.90;99.60;;;;;;5031534;28;20037;-71
2023/05/04 07:20:30;;;;;;;10.00;6.00;;;10.10;99.80;;;;;;5048920;28;20041;-72
2023/05/04 07:22:56;;;;;;;14.20;6.90;;;10.20;99.40;;;;;;5040179;28;20041;-72
2023/05/04 07:25:23;;;;;;;11.03;6.50;;;10.20;99.60;;;;;;5043076;28;20036;-72
2023/05/04 07:27:50;;;;;;;13.25;6.57;;;10.40;99.40;;;;;;5023548;28;20044;-72
2023/05/04 07:30:15;;;;;;;13.30;6.20;;;10.50;99.70;;;;;;5022008;28;20049;-72
2023/05/04 07:32:41;;;;;;;14.13;6.77;;;10.60;99.90;;;;;;5036489;28;20398;-72
2023/05/04 07:35:07;;;;;;;12.03;6.53;;;10.80;98.70;;;;;;5031078;28;20518;-72
2023/05/04 07:37:33;;;;;;;14.27;6.57;;;10.90;96.70;;;;;;5025303;28;20090;-72
2023/05/04 07:39:59;;;;;;;13.83;5.83;;;10.90;95.60;;;;;;5045728;28;20041;-72
2023/05/04 07:42:26;;;;;;;12.23;5.90;;;10.90;96.30;;;;;;5048529;28;20348;-72
2023/05/04 07:44:52;;;;;;;12.52;6.95;;;11.00;95.20;;;;;;5030983;28;20544;-72
2023/05/04 07:47:18;;;;;;;11.67;6.47;;;11.10;95.10;;;;;;5024856;28;20053;-72
2023/05/04 07:49:44;;;;;;;14.20;6.45;;;11.10;94.40;;;;;;5046444;28;20693;-72
2023/05/04 07:52:11;;;;;;;12.47;6.40;;;11.20;94.60;;;;;;5029477;28;20068;-73
2023/05/04 07:54:37;;;;;;;12.48;6.78;;;11.30;93.80;;;;;;5049473;28;20314;-72
2023/05/04 07:57:03;;;;;;;13.47;6.07;;;11.30;94.50;;;;;;5049045;28;20040;-73
2023/05/04 07:59:30;;;;;;;11.82;7.10;;;11.40;94.60;;;;;;5048947;28;20279;-73
2023/05/04 08:01:55;;;;;;;13.48;6.60;;;11.50;93.90;;;;;;5026272;28;20045;-72
2023/05/04 08:04:21;;;;;;;8.80;6.10;;;11.60;94.30;;;;;;5029051;28;20045;-72
2023/05/04 08:06:48;;;;;;;13.83;6.20;;;11.70;93.80;;;;;;5049465;28;20698;-73
2023/05/04 08:09:14;;;;;;;12.95;6.35;;;11.90;93.10;;;;;;5044735;28;20047;-73
2023/05/04 08:11:41;;;;;;;13.73;6.53;;;12.00;93.10;;;;;;5041698;28;20086;-72
2023/05/04 08:14:07;;;;;;;9.77;5.70;;;12.10;94.10;;;;;;5041823;28;20490;-72
2023/05/04 08:16:33;;;;;;;10.98;6.45;;;12.20;93.00;;;;;;5032384;28;20372;-73
2023/05/04 08:19:00;;;;;;;11.57;6.40;;;12.30;91.80;;;;;;5039094;28;20045;-73
2023/05/04 08:21:26;;;;;;;13.52;7.15;;;12.30;88.90;;;;;;5022910;28;20032;-71
2023/05/04 08:23:52;;;;;;;15.93;6.50;;;12.30;90.80;;;;;;5049770;28;20083;-73
2023/05/04 08:26:18;;;;;;;13.57;6.33;;;12.40;91.20;;;;;;5028985;28;20073;-72
2023/05/04 08:28:45;;;;;;;10.97;6.37;;;12.60;91.30;;;;;;5045696;28;20653;-72
2023/05/04 08:31:14;;;;;;;9.73;5.40;;;12.70;90.20;;;;;;5044466;28;20299;-73
2023/05/04 08:33:40;;;;;;;9.60;5.97;;;12.80;88.40;;;;;;5046297;28;20286;-73
2023/05/04 08:36:08;;;;;;;9.77;5.23;;;12.90;88.00;;;;;;5030132;28;20307;-73
2023/05/04 08:38:34;;;;;;;11.23;5.20;;;12.90;87.50;;;;;;5045315;28;20037;-72
2023/05/04 08:41:03;;;;;;;11.93;5.73;;;13.00;88.70;;;;;;5045675;28;20278;-72
2023/05/04 08:43:29;;;;;;;13.70;5.80;;;13.10;88.90;;;;;;5042306;28;20155;-73
2023/05/04 08:45:55;;;;;;;11.63;6.00;;;13.30;88.00;;;;;;5051280;28;20284;-73
2023/05/04 08:48:21;;;;;;;10.00;6.10;;;13.40;87.00;;;;;;5038484;28;20299;-73
2023/05/04 08:50:47;;;;;;;11.93;5.77;;;13.50;86.50;;;;;;5038270;28;20304;-73
2023/05/04 08:53:17;;;;;;;9.43;5.30;;;13.60;87.70;;;;;;5038034;28;20040;-73
2023/05/04 08:55:46;;;;;;;7.80;5.20;;;13.70;86.60;;;;;;5056827;28;20291;-73
2023/05/04 08:58:15;;;;;;;11.07;5.13;;;13.90;83.80;;;;;;5051208;28;20879;-73
2023/05/04 09:00:42;;;;;;;10.43;5.43;;;13.90;82.70;;;;;;5052665;28;20287;-73
2023/05/04 09:03:12;;;;;;;13.07;5.63;;;14.00;83.80;;;;;;5055932;28;20790;-73
2023/05/04 09:05:41;;;;;;;10.20;5.50;;;14.10;84.20;;;;;;5034093;28;20291;-73
2023/05/04 09:08:07;;;;;;;10.30;6.10;;;14.20;81.50;;;;;;5031399;28;20279;-74
2023/05/04 09:10:33;;;;;;;12.17;6.10;;;14.20;82.60;;;;;;5046628;28;20370;-73
2023/05/04 09:12:59;;;;;;;11.90;5.67;;;14.30;83.40;;;;;;5052133;28;20037;-72
2023/05/04 09:15:25;;;;;;;10.17;5.40;;;14.40;83.50;;;;;;5046172;28;20294;-73
2023/05/04 09:18:00;;;;;;;8.70;5.50;;;14.50;80.50;;;;;;5049646;28;20045;-73
2023/05/04 09:20:26;;;;;;;13.77;5.50;;;14.50;79.80;;;;;;5044226;28;20283;-74
2023/05/04 09:23:08;;;;;;;12.07;5.60;;;14.50;79.00;;;;;;5043855;28;20842;-73
2023/05/04 09:25:48;;;;;;;8.97;4.90;;;14.50;80.50;;;;;;5044169;28;20047;-73
2023/05/04 09:28:15;;;;;;;11.23;5.77;;;14.50;80.00;;;;;;5024802;28;20304;-73
2023/05/04 09:30:41;;;;;;;9.60;5.23;;;14.50;80.60;;;;;;5023606;28;20271;-73
2023/05/04 09:33:07;;;;;;;11.00;5.17;;;14.60;80.90;;;;;;5045988;28;20275;-72
2023/05/04 09:35:33;;;;;;;10.90;5.17;;;14.80;82.50;;;;;;5038269;28;20284;-72
2023/05/04 09:37:59;;;;;;;11.60;5.17;;;14.90;79.40;;;;;;5037153;28;20361;-73
2023/05/04 09:40:35;;;;;;;9.33;4.80;;;15.00;78.10;;;;;;5041785;28;20395;-73
2023/05/04 09:43:01;;;;;;;10.47;5.40;;;15.10;78.50;;;;;;5044999;28;20506;-73
2023/05/04 09:45:37;;;;;;;9.87;5.10;;;15.20;80.60;;;;;;5049004;28;20291;-73
2023/05/04 09:48:24;;;;;;;10.00;5.57;;;15.40;80.70;;;;;;5045775;28;20416;-73
2023/05/04 09:50:54;;;;;;;12.23;5.77;;;15.50;78.40;;;;;;5037866;28;20382;-73
2023/05/04 09:53:25;;;;;;;10.33;4.67;;;15.60;76.40;;;;;;5045171;28;20291;-73
2023/05/04 09:56:07;;;;;;;9.53;5.30;;;15.70;74.80;;;;;;5050689;28;20295;-73
2023/05/04 09:58:33;;;;;;;10.70;5.07;;;15.70;74.30;;;;;;5034793;28;20398;-73
2023/05/04 10:01:02;;;;;;;13.00;5.13;;;15.70;68.40;;;;;;5036394;28;20287;-73
2023/05/04 10:03:29;;;;;;;9.93;5.63;;;15.70;68.20;;;;;;5032211;28;20037;-73
2023/05/04 10:05:56;;;;;;;12.33;5.40;;;15.80;70.00;;;;;;5036583;28;20287;-73
2023/05/04 10:08:22;;;;;;;10.47;5.30;;;15.90;67.20;;;;;;5029786;28;20276;-74
2023/05/04 10:10:48;;;;;;;8.20;4.90;;;16.10;65.10;;;;;;5029694;28;20294;-74
2023/05/04 10:13:16;;;;;;;10.00;5.43;;;16.10;65.10;;;;;;5029316;28;20598;-74
2023/05/04 10:16:23;;;;;;;9.43;5.83;;;16.10;64.70;;;;;;5051001;28;20275;-73
2023/05/04 10:19:30;;;;;;;8.73;5.10;;;16.10;64.80;;;;;;5028186;28;20291;-73
2023/05/04 10:22:16;;;;;;;9.60;5.27;;;16.20;64.30;;;;;;5015579;28;20276;-73
2023/05/04 10:24:54;;;;;;;8.73;5.10;;;16.10;64.40;;;;;;5041072;28;20288;-73
2023/05/04 10:27:32;;;;;;;9.23;4.63;;;16.10;64.40;;;;;;5030829;28;20049;-74
2023/05/04 10:30:00;;;;;;;9.07;5.27;;;16.10;64.20;;;;;;5050721;28;20691;-73
2023/05/04 10:32:26;;;;;;;9.60;5.40;;;16.10;64.80;;;;;;5035792;28;20279;-73
2023/05/04 10:35:06;;;;;;;9.27;5.13;;;16.20;65.50;;;;;;5031506;28;20360;-73
2023/05/04 10:37:32;;;;;;;12.83;4.90;;;16.30;65.60;;;;;;5024795;28;20331;-73
2023/05/04 10:39:57;;;;;;;8.50;4.80;;;16.40;64.00;;;;;;5032312;28;20326;-73
2023/05/04 10:42:23;;;;;;;9.03;4.77;;;16.50;64.30;;;;;;5031044;28;20037;-73
2023/05/04 10:44:54;;;;;;;9.97;4.73;;;16.60;61.90;;;;;;5047218;28;20097;-73
2023/05/04 10:47:34;;;;;;;9.80;5.13;;;16.60;63.30;;;;;;5043011;28;20393;-73
2023/05/04 10:50:13;;;;;;;10.00;5.40;;;16.70;62.20;;;;;;5064196;28;20383;-73
2023/05/04 10:52:49;;;;;;;8.90;4.57;;;16.80;61.10;;;;;;5033140;28;20283;-73
2023/05/04 10:55:16;;;;;;;8.37;4.53;;;16.90;62.10;;;;;;5046813;28;20287;-73
2023/05/04 10:57:50;;;;;;;8.57;4.57;;;17.10;63.80;;;;;;5031880;28;20385;-74
2023/05/04 11:00:17;;;;;;;7.73;4.53;;;17.20;62.40;;;;;;5027624;28;20322;-74
2023/05/04 11:02:45;;;;;;;7.53;4.90;;;17.30;60.90;;;;;;5041543;28;20276;-74
2023/05/04 11:05:16;;;;;;;8.33;4.60;;;17.40;61.50;;;;;;5040847;28;20295;-74
2023/05/04 11:07:43;;;;;;;9.07;4.67;;;17.40;58.60;;;;;;5040711;28;20388;-74
2023/05/04 11:10:25;;;;;;;10.03;4.47;;;17.40;58.80;;;;;;5050037;28;20291;-74
2023/05/04 11:13:01;;;;;;;8.27;4.97;;;17.50;59.20;;;;;;5043373;28;20698;-74
2023/05/04 11:15:27;;;;;;;9.43;5.17;;;17.50;58.20;;;;;;5042094;28;20295;-73
2023/05/04 11:17:53;;;;;;;9.70;4.70;;;17.50;58.60;;;;;;5028985;28;20350;-73
2023/05/04 11:20:20;;;;;;;9.80;5.03;;;17.50;58.20;;;;;;5046212;28;20068;-73
2023/05/04 11:22:47;;;;;;;12.27;4.83;;;17.50;58.00;;;;;;5032921;28;20037;-74
2023/05/04 11:25:13;;;;;;;9.13;4.93;;;17.60;59.50;;;;;;5044185;28;20299;-74
2023/05/04 11:27:38;;;;;;;10.40;4.93;;;17.80;58.30;;;;;;5029129;28;20279;-74
2023/05/04 11:30:05;;;;;;;9.63;4.73;;;17.90;57.80;;;;;;5025361;28;20063;-74
2023/05/04 11:32:38;;;;;;;9.63;4.73;;;18.00;58.10;;;;;;5028013;28;20170;-74
2023/05/04 11:35:07;;;;;;;10.90;5.30;;;18.10;57.40;;;;;;5026999;28;20371;-73
2023/05/04 11:37:40;;;;;;;9.97;4.87;;;18.10;56.80;;;;;;5029717;28;20389;-74
2023/05/04 11:40:15;;;;;;;8.77;4.70;;;18.10;56.50;;;;;;5044354;28;20363;-74
2023/05/04 11:42:42;;;;;;;9.45;5.57;;;18.20;57.10;;;;;;5050072;28;20810;-74
2023/05/04 11:45:16;;;;;;;10.07;5.40;;;18.20;54.80;;;;;;5030320;28;20052;-74
2023/05/04 11:47:43;;;;;;;9.32;5.00;;;18.10;55.60;;;;;;5047660;28;20291;-75
2023/05/04 11:50:11;;;;;;;13.23;5.70;;;18.10;55.70;;;;;;5048392;28;20049;-75
2023/05/04 11:52:39;;;;;;;8.97;4.30;;;18.10;57.00;;;;;;5051783;28;20373;-74
2023/05/04 11:55:29;;;;;;;7.90;4.60;;;18.20;56.70;;;;;;5052564;28;20287;-74
2023/05/04 11:58:03;;;;;;;7.13;4.53;;;18.30;55.50;;;;;;5026658;28;20319;-74
2023/05/04 12:00:45;;;;;;;7.87;4.67;;;18.30;57.00;;;;;;5030368;28;20291;-75
2023/05/04 12:03:13;;;;;;;8.60;5.27;;;18.50;57.40;;;;;;5052488;28;20275;-74
2023/05/04 12:05:47;;;;;;;9.43;4.67;;;18.60;55.70;;;;;;5050563;28;20663;-75
2023/05/04 12:08:40;;;;;;;7.13;4.83;;;18.80;55.60;;;;;;5056955;28;20299;-74
2023/05/04 12:11:24;;;;;;;10.40;5.20;;;18.90;52.70;;;;;;5051282;28;20717;-75
2023/05/04 12:14:05;;;;;;;6.23;4.30;;;19.00;54.80;;;;;;5050939;28;20276;-74
2023/05/04 12:16:31;;;;;;;8.07;4.20;;;19.10;54.20;;;;;;5032007;28;20292;-74
2023/05/04 12:19:03;;;;;;;7.17;4.17;;;19.30;52.60;;;;;;5032185;28;20335;-74
2023/05/04 12:21:30;;;;;;;6.77;4.30;;;19.40;50.20;;;;;;5047296;28;20280;-74
2023/05/04 12:23:58;;;;;;;10.77;4.07;;;19.40;51.40;;;;;;5030661;28;20286;-74
2023/05/04 12:26:24;;;;;;;13.50;4.37;;;19.40;52.20;;;;;;5032599;28;20285;-74
2023/05/04 12:28:50;;;;;;;8.67;4.67;;;19.60;52.70;;;;;;5065135;28;20295;-74
2023/05/04 12:31:16;;;;;;;6.13;4.20;;;19.80;50.60;;;;;;5049682;28;20280;-74
2023/05/04 12:33:41;;;;;;;10.23;3.77;;;20.00;51.80;;;;;;5048867;28;20059;-74
2023/05/04 12:36:09;;;;;;;6.73;4.43;;;20.10;49.70;;;;;;5032982;28;20039;-75
2023/05/04 12:38:34;;;;;;;8.47;4.30;;;20.00;49.80;;;;;;5052745;28;20044;-74
2023/05/04 12:41:04;;;;;;;7.53;4.77;;;20.00;49.70;;;;;;5031413;28;20125;-74
2023/05/04 12:43:31;;;;;;;7.73;4.43;;;19.90;49.10;;;;;;5051259;28;20062;-75
2023/05/04 12:45:57;;;;;;;8.90;4.40;;;19.80;48.50;;;;;;5038717;28;20622;-75
2023/05/04 12:48:25;;;;;;;13.00;5.73;;;19.70;49.50;;;;;;5041663;28;20412;-74